Αρχική σελίδα
METAR-TAF:

METAR-TAF

Αεροδρόμια :

Νουμέα La Tontouta, Νέα Καληδονία

γεωγραφικό πλάτος: 22-01S, γεωγραφικό μήκος: 166-13E, υψόμετρο: 16 μ

Παρών καιρός

Η αναφορά έγινε 35 λεπτά πριν, στις 03:30 UTC
Άνεμος 18 kt από Α/NA
Θερμοκρασία 23°C
Υγρασία 50%
Πίεση 1016 hPa
Ορατότητα 10 χλμ και άνω
Δεν υπάρχουν νέφη με βάση κάτω από τα 1500 μ. και δεν υπάρχουν νέφη σωρειτομελανίτες.

METAR: NWWW 230330Z AUTO 12018KT CAVOK 23/12 Q1016 NOSIG

Χρόνος: 15:05 (04:05 UTC)

Πρόγνωση Καιρού

Η αναφορά έγινε 5 ώρες και 5 λεπτά πριν, στις 23:00 UTC
Η πρόγνωση ισχύει από τις 23 στις 00 UTC έως τις 23 στις 24 UTC
Άνεμος 16 kt από ΝA
Ορατότητα 10 χλμ και άνω
Λίγα νέφη σε ύψος 3500 πόδια
Αρκετά νέφη σε ύψος 5000 πόδια
Καθιστάμενος
από 23 στις 07 UTC έως τις 23 στις 09 UTC
Άνεμος 2 kt από μεταβλητές κατευθύνσεις

TAF: NWWW 222300Z 2300/2324 14016KT 9999 FEW035 BKN050 BECMG 2307/2309 VRB02KT

Μετεωρολογικές αναφορές και προγνώσεις για περισσότερα από 4000 αεροδρόμια (δελτία METAR και TAF).

Οι διαθέσιμοι σταθμοί απεικονίζονται στο χάρτη με κίτρινες και κόκκινες κουκκίδες.

Μετακινήστε το ποντίκι πάνω από τις κουκκίδες για να δείτε το όνομα του σταθμού.

Στη συνέχεια, κάντε κλικ για να δείτε τις μετεωρολογικές αναφορές και τις προγνώσεις καιρού.

Για να αλλάξετε το χάρτη: κάντε κλικ στα πράσινα κουμπιά με τον μαύρο σταυρό για να ζουμάρετε, στο πράσινο κουμπί με την παύλα για να αφαιρέσετε το ζουμ ή στα πράσινα βέλη για να αντιπαραβάλλετε χάρτες.


METAR-TAF: